createdAt,value
2018-12-23T00:00:51.677Z,96.90
2018-12-23T00:03:19.145Z,96.70
2018-12-23T00:05:46.591Z,96.70
2018-12-23T00:08:14.064Z,96.60
2018-12-23T00:10:41.520Z,96.80
2018-12-23T00:13:08.994Z,96.70
2018-12-23T00:15:36.512Z,96.60
2018-12-23T00:18:03.987Z,96.60
2018-12-23T00:20:31.432Z,96.50
2018-12-23T00:22:58.889Z,96.50
2018-12-23T00:25:27.314Z,96.40
2018-12-23T00:27:54.881Z,96.40
2018-12-23T00:30:22.349Z,96.70
2018-12-23T00:32:49.808Z,96.80
2018-12-23T00:35:20.607Z,96.60
2018-12-23T00:37:46.736Z,96.60
2018-12-23T00:40:14.201Z,96.80
2018-12-23T00:42:41.665Z,96.90
2018-12-23T00:45:09.197Z,97.00
2018-12-23T00:47:36.652Z,97.20
2018-12-23T00:50:05.557Z,97.20
2018-12-23T00:52:33.012Z,97.30
2018-12-23T00:55:00.485Z,97.30
2018-12-23T00:57:27.940Z,97.50
2018-12-23T00:59:55.453Z,97.70
2018-12-23T01:02:22.909Z,97.30
2018-12-23T01:04:50.376Z,97.30
2018-12-23T01:07:17.832Z,97.60
2018-12-23T01:09:45.301Z,97.40
2018-12-23T01:12:12.747Z,97.30
2018-12-23T01:14:40.216Z,97.70
2018-12-23T01:17:07.677Z,97.70
2018-12-23T01:19:35.147Z,97.40
2018-12-23T01:22:02.601Z,97.50
2018-12-23T01:24:30.066Z,98.00
2018-12-23T01:26:57.516Z,97.10
2018-12-23T01:29:24.980Z,97.30
2018-12-23T01:31:53.385Z,97.30
2018-12-23T01:34:20.853Z,97.90
2018-12-23T01:36:48.304Z,97.10
2018-12-23T01:39:15.768Z,97.20
2018-12-23T01:41:43.228Z,97.20
2018-12-23T01:44:10.696Z,97.20
2018-12-23T01:46:38.165Z,97.20
2018-12-23T01:49:05.620Z,97.50
2018-12-23T01:51:33.093Z,97.50
2018-12-23T01:54:01.181Z,97.40
2018-12-23T01:56:28.643Z,97.40
2018-12-23T01:58:56.101Z,97.20
2018-12-23T02:01:23.568Z,97.10
2018-12-23T02:03:51.020Z,97.10
2018-12-23T02:06:18.489Z,97.10
2018-12-23T02:08:46.141Z,97.20
2018-12-23T02:11:13.603Z,97.20
2018-12-23T02:13:41.066Z,97.30
2018-12-23T02:16:08.524Z,97.50
2018-12-23T02:18:35.981Z,98.40
2018-12-23T02:21:03.444Z,98.70
2018-12-23T02:23:30.899Z,98.90
2018-12-23T02:25:58.568Z,98.90
2018-12-23T02:28:26.044Z,99.20
2018-12-23T02:30:53.541Z,99.00
2018-12-23T02:33:20.987Z,99.30
2018-12-23T02:35:55.456Z,99.60
2018-12-23T02:38:18.076Z,99.60
2018-12-23T02:40:45.545Z,99.40
2018-12-23T02:43:12.999Z,99.40
2018-12-23T02:45:40.465Z,99.60
2018-12-23T02:48:07.918Z,99.70
2018-12-23T02:50:35.389Z,99.60
2018-12-23T02:53:02.840Z,99.50
2018-12-23T02:55:30.309Z,99.50
2018-12-23T02:57:57.756Z,99.40
2018-12-23T03:00:25.220Z,99.10
2018-12-23T03:02:52.684Z,99.00
2018-12-23T03:05:20.220Z,99.30
2018-12-23T03:07:47.676Z,99.50
2018-12-23T03:10:15.145Z,99.20
2018-12-23T03:12:42.602Z,99.20
2018-12-23T03:15:10.137Z,98.90
2018-12-23T03:17:37.594Z,98.80
2018-12-23T03:20:05.780Z,99.00
2018-12-23T03:22:33.256Z,98.80
2018-12-23T03:25:00.709Z,98.60
2018-12-23T03:27:28.176Z,98.40
2018-12-23T03:29:55.630Z,98.70
2018-12-23T03:32:23.093Z,98.40
2018-12-23T03:34:50.648Z,98.40
2018-12-23T03:37:18.202Z,98.20
2018-12-23T03:39:47.625Z,98.20
2018-12-23T03:42:15.094Z,98.20
2018-12-23T03:44:42.896Z,98.40
2018-12-23T03:47:10.437Z,98.10
2018-12-23T03:49:37.905Z,98.30
2018-12-23T03:52:05.369Z,97.90
2018-12-23T03:54:32.825Z,97.90
2018-12-23T03:57:00.289Z,98.10
2018-12-23T03:59:27.736Z,97.90
2018-12-23T04:01:55.210Z,98.00
2018-12-23T04:04:22.661Z,98.10
2018-12-23T04:06:50.123Z,98.10
2018-12-23T04:09:17.575Z,98.10
2018-12-23T04:11:45.041Z,97.90
2018-12-23T04:14:12.500Z,97.80
2018-12-23T04:16:39.960Z,97.80
2018-12-23T04:19:07.413Z,97.80
2018-12-23T04:21:34.881Z,97.80
2018-12-23T04:24:02.331Z,97.90
2018-12-23T04:26:30.128Z,97.70
2018-12-23T04:28:57.595Z,97.70
2018-12-23T04:31:25.049Z,97.90
2018-12-23T04:33:52.500Z,97.90
2018-12-23T04:36:19.977Z,98.20
2018-12-23T04:38:47.429Z,98.30
2018-12-23T04:41:14.895Z,98.20
2018-12-23T04:43:42.350Z,98.60
2018-12-23T04:46:09.822Z,98.60
2018-12-23T04:48:37.278Z,98.40
2018-12-23T04:51:04.733Z,98.40
2018-12-23T04:53:32.201Z,98.10
2018-12-23T04:55:59.657Z,98.10
2018-12-23T04:58:27.122Z,98.00
2018-12-23T05:00:54.575Z,98.10
2018-12-23T05:03:22.040Z,98.10
2018-12-23T05:05:49.488Z,98.10
2018-12-23T05:08:16.952Z,98.20
2018-12-23T05:10:44.440Z,98.10
2018-12-23T05:13:11.909Z,98.40
2018-12-23T05:15:39.358Z,98.60
2018-12-23T05:18:06.822Z,98.40
2018-12-23T05:20:34.277Z,98.30
2018-12-23T05:23:01.736Z,98.50
2018-12-23T05:25:29.183Z,98.60
2018-12-23T05:27:56.669Z,98.40
2018-12-23T05:30:24.123Z,98.40
2018-12-23T05:32:51.584Z,98.30
2018-12-23T05:35:19.037Z,98.70
2018-12-23T05:37:46.507Z,98.70
2018-12-23T05:40:13.959Z,98.70
2018-12-23T05:42:41.426Z,98.50
2018-12-23T05:45:08.881Z,98.70
2018-12-23T05:47:36.336Z,98.50
2018-12-23T05:50:04.125Z,98.70
2018-12-23T05:52:31.588Z,98.80
2018-12-23T05:54:59.050Z,98.80
2018-12-23T05:57:26.608Z,98.80
2018-12-23T05:59:54.065Z,98.80
2018-12-23T06:02:21.532Z,98.90
2018-12-23T06:04:48.989Z,98.90
2018-12-23T06:07:16.455Z,99.00
2018-12-23T06:09:43.909Z,98.90
2018-12-23T06:12:11.377Z,98.90
2018-12-23T06:14:38.896Z,99.00
2018-12-23T06:17:06.365Z,98.80
2018-12-23T06:19:33.828Z,98.60
2018-12-23T06:22:01.281Z,98.60
2018-12-23T06:24:28.785Z,98.50
2018-12-23T06:26:56.241Z,98.50
2018-12-23T06:29:23.700Z,98.70
2018-12-23T06:31:51.157Z,98.60
2018-12-23T06:34:18.632Z,98.30
2018-12-23T06:36:46.077Z,98.40
2018-12-23T06:39:13.536Z,98.40
2018-12-23T06:41:40.988Z,98.50
2018-12-23T06:44:08.463Z,98.80
2018-12-23T06:46:35.916Z,98.50
2018-12-23T06:49:03.387Z,98.30
2018-12-23T06:51:31.205Z,98.30
2018-12-23T06:53:58.664Z,98.20
2018-12-23T06:56:26.117Z,98.30
2018-12-23T06:58:53.585Z,98.40
2018-12-23T07:01:21.036Z,98.10
2018-12-23T07:03:48.501Z,98.50
2018-12-23T07:06:16.924Z,98.00
2018-12-23T07:08:44.393Z,98.10
2018-12-23T07:11:11.845Z,98.00
2018-12-23T07:13:39.336Z,97.80
2018-12-23T07:16:06.794Z,97.60
2018-12-23T07:18:34.261Z,97.50
2018-12-23T07:21:01.853Z,97.40
2018-12-23T07:23:29.853Z,97.30
2018-12-23T07:25:57.314Z,97.20
2018-12-23T07:28:24.777Z,97.40
2018-12-23T07:30:52.228Z,97.40
2018-12-23T07:33:19.700Z,97.50
2018-12-23T07:35:47.256Z,97.60
2018-12-23T07:38:14.835Z,97.70
2018-12-23T07:40:42.350Z,97.80
2018-12-23T07:43:09.808Z,97.70
2018-12-23T07:45:37.260Z,97.90
2018-12-23T07:48:04.829Z,97.60
2018-12-23T07:50:32.295Z,97.20
2018-12-23T07:52:59.751Z,97.40
2018-12-23T07:55:27.221Z,97.30
2018-12-23T07:57:54.672Z,97.40
2018-12-23T08:00:22.152Z,97.30
2018-12-23T08:02:49.610Z,97.30
2018-12-23T08:05:17.083Z,97.20
2018-12-23T08:07:44.536Z,96.90
2018-12-23T08:10:12.000Z,97.00
2018-12-23T08:12:39.457Z,96.70
2018-12-23T08:15:07.116Z,96.70
2018-12-23T08:17:34.569Z,97.10
2018-12-23T08:20:02.045Z,96.60
2018-12-23T08:22:30.461Z,96.50
2018-12-23T08:24:57.938Z,96.70
2018-12-23T08:27:25.397Z,97.30
2018-12-23T08:29:52.865Z,96.40
2018-12-23T08:32:20.330Z,96.40
2018-12-23T08:34:47.797Z,95.90
2018-12-23T08:37:15.256Z,95.50
2018-12-23T08:39:42.723Z,96.20
2018-12-23T08:42:10.207Z,95.00
2018-12-23T08:44:37.668Z,94.60
2018-12-23T08:47:05.132Z,94.50
2018-12-23T08:49:32.594Z,94.10
2018-12-23T08:52:00.060Z,94.00
2018-12-23T08:54:27.517Z,93.70
2018-12-23T08:56:54.984Z,93.50
2018-12-23T08:59:22.445Z,93.30
2018-12-23T09:01:49.916Z,93.20
2018-12-23T09:04:17.376Z,93.00
2018-12-23T09:06:45.023Z,92.40
2018-12-23T09:09:12.700Z,92.90
2018-12-23T09:11:42.946Z,92.30
2018-12-23T09:14:09.631Z,92.00
2018-12-23T09:16:37.104Z,92.60
2018-12-23T09:19:04.578Z,92.60
2018-12-23T09:21:32.032Z,92.40
2018-12-23T09:23:59.513Z,92.00
2018-12-23T09:26:26.969Z,91.90
2018-12-23T09:28:54.442Z,92.00
2018-12-23T09:31:21.893Z,92.10
2018-12-23T09:33:49.360Z,91.80
2018-12-23T09:36:16.813Z,91.70
2018-12-23T09:38:44.432Z,92.20
2018-12-23T09:41:11.977Z,92.50
2018-12-23T09:43:39.444Z,92.00
2018-12-23T09:46:06.896Z,92.00
2018-12-23T09:48:34.364Z,92.80
2018-12-23T09:51:01.821Z,93.40
2018-12-23T09:53:29.272Z,93.90
2018-12-23T09:55:57.013Z,93.90
2018-12-23T09:58:24.472Z,94.30
2018-12-23T10:00:51.944Z,94.80
2018-12-23T10:03:19.417Z,94.60
2018-12-23T10:05:46.926Z,94.30
2018-12-23T10:08:14.444Z,94.40
2018-12-23T10:10:41.905Z,94.20
2018-12-23T10:13:09.369Z,94.20
2018-12-23T10:15:37.089Z,94.20
2018-12-23T10:18:04.588Z,93.60
2018-12-23T10:20:32.069Z,93.10
2018-12-23T10:22:59.525Z,93.10
2018-12-23T10:25:26.993Z,92.90
2018-12-23T10:27:54.480Z,93.40
2018-12-23T10:30:22.012Z,92.70
2018-12-23T10:32:50.432Z,92.70
2018-12-23T10:35:17.906Z,92.70
2018-12-23T10:37:45.356Z,93.60
2018-12-23T10:40:12.815Z,93.60
2018-12-23T10:42:40.280Z,93.50
2018-12-23T10:45:07.739Z,93.70
2018-12-23T10:47:35.209Z,93.40
2018-12-23T10:50:02.660Z,93.70
2018-12-23T10:52:30.162Z,94.30
2018-12-23T10:54:57.617Z,92.70
2018-12-23T10:57:25.090Z,92.60
2018-12-23T10:59:52.545Z,92.40
2018-12-23T11:02:20.013Z,92.50
2018-12-23T11:04:47.600Z,91.90
2018-12-23T11:07:15.096Z,92.90
2018-12-23T11:09:42.556Z,91.60
2018-12-23T11:12:10.035Z,90.80
2018-12-23T11:14:37.498Z,91.30
2018-12-23T11:17:04.961Z,90.30
2018-12-23T11:19:32.436Z,90.70
2018-12-23T11:22:01.268Z,89.60
2018-12-23T11:24:28.736Z,88.10
2018-12-23T11:26:56.197Z,89.20
2018-12-23T11:29:23.657Z,85.80
2018-12-23T11:31:51.128Z,86.40
2018-12-23T11:34:19.818Z,86.50
2018-12-23T11:36:47.469Z,86.30
2018-12-23T11:39:15.473Z,86.30
2018-12-23T11:41:43.031Z,86.80
2018-12-23T11:44:10.501Z,83.90
2018-12-23T11:46:37.957Z,84.90
2018-12-23T11:49:05.432Z,86.20
2018-12-23T11:51:32.890Z,88.30
2018-12-23T11:54:00.357Z,86.60
2018-12-23T11:56:27.816Z,84.20
2018-12-23T11:58:55.292Z,84.30
2018-12-23T12:01:22.750Z,83.90
2018-12-23T12:03:50.233Z,85.90
2018-12-23T12:06:17.688Z,86.50
2018-12-23T12:08:45.166Z,83.80
2018-12-23T12:11:12.628Z,82.30
2018-12-23T12:13:40.080Z,83.10
2018-12-23T12:16:07.587Z,82.90
2018-12-23T12:18:35.045Z,84.00
2018-12-23T12:21:02.642Z,82.40
2018-12-23T12:23:30.088Z,83.80
2018-12-23T12:25:57.584Z,83.00
2018-12-23T12:28:25.024Z,84.40
2018-12-23T12:30:52.499Z,82.70
2018-12-23T12:33:19.965Z,83.00
2018-12-23T12:35:49.833Z,82.90
2018-12-23T12:38:17.301Z,84.90
2018-12-23T12:40:44.873Z,84.10
2018-12-23T12:43:12.345Z,84.80
2018-12-23T12:45:39.796Z,84.80
2018-12-23T12:48:07.265Z,84.70
2018-12-23T12:50:34.720Z,84.40
2018-12-23T12:53:02.188Z,84.20
2018-12-23T12:55:29.649Z,83.90
2018-12-23T12:57:57.123Z,84.50
2018-12-23T13:00:24.594Z,84.30
2018-12-23T13:02:52.052Z,85.80
2018-12-23T13:05:19.516Z,84.20
2018-12-23T13:07:46.975Z,84.70
2018-12-23T13:10:14.449Z,85.40
2018-12-23T13:12:41.904Z,86.10
2018-12-23T13:15:09.376Z,87.40
2018-12-23T13:17:36.825Z,89.00
2018-12-23T13:20:05.723Z,90.30
2018-12-23T13:22:34.152Z,92.00
2018-12-23T13:25:01.757Z,93.30
2018-12-23T13:27:29.228Z,93.60
2018-12-23T13:29:56.700Z,94.10
2018-12-23T13:32:24.178Z,94.10
2018-12-23T13:34:51.633Z,94.10
2018-12-23T13:37:19.118Z,93.60
2018-12-23T13:39:46.640Z,93.60
2018-12-23T13:42:33.773Z,94.20
2018-12-23T13:45:08.924Z,94.10
2018-12-23T13:47:45.489Z,93.60
2018-12-23T13:54:09.486Z,94.10
2018-12-23T13:56:50.218Z,94.40
2018-12-23T13:59:30.769Z,94.50
2018-12-23T14:02:11.774Z,94.40
2018-12-23T14:04:53.235Z,94.80
2018-12-23T14:07:34.325Z,96.00
2018-12-23T14:10:16.445Z,96.60
2018-12-23T14:12:57.109Z,96.50
2018-12-23T14:15:38.051Z,96.40
2018-12-23T14:18:18.582Z,96.70
2018-12-23T14:20:59.314Z,96.00
2018-12-23T14:23:39.718Z,96.40
2018-12-23T14:26:21.130Z,96.60
2018-12-23T14:29:02.222Z,95.70
2018-12-23T14:31:43.443Z,94.80
2018-12-23T14:34:24.442Z,95.70
2018-12-23T14:37:05.067Z,96.30
2018-12-23T14:39:45.587Z,96.40
2018-12-23T14:42:27.049Z,97.20
2018-12-23T14:45:07.748Z,97.60
2018-12-23T14:47:48.089Z,98.10
2018-12-23T14:50:29.742Z,98.70
2018-12-23T14:53:10.310Z,98.70
2018-12-23T14:55:51.366Z,99.30
2018-12-23T14:58:31.815Z,99.60
2018-12-23T15:01:12.933Z,99.90
2018-12-23T15:03:53.968Z,99.80
2018-12-23T15:06:35.486Z,99.90
2018-12-23T15:09:16.650Z,99.90
2018-12-23T15:11:57.427Z,99.90
2018-12-23T15:14:37.786Z,99.90
2018-12-23T15:17:16.582Z,99.90
2018-12-23T15:20:24.526Z,99.90
2018-12-23T15:23:12.750Z,99.90
2018-12-23T15:26:00.625Z,99.90
2018-12-23T15:28:48.496Z,99.90
2018-12-23T15:31:36.382Z,99.90
2018-12-23T15:34:24.622Z,99.90
2018-12-23T15:37:12.510Z,99.90
2018-12-23T15:40:00.678Z,99.90
2018-12-23T15:42:41.779Z,99.90
2018-12-23T15:45:20.566Z,99.90
2018-12-23T15:48:08.725Z,99.90
2018-12-23T15:50:56.870Z,99.90
2018-12-23T15:53:44.749Z,99.90
2018-12-23T15:56:32.973Z,99.90
2018-12-23T15:59:20.891Z,99.90
2018-12-23T16:02:09.126Z,99.90
2018-12-23T16:05:16.522Z,99.90
2018-12-23T16:08:04.666Z,99.90
2018-12-23T16:10:52.557Z,99.90
2018-12-23T16:13:40.745Z,99.90
2018-12-23T16:16:28.626Z,99.90
2018-12-23T16:19:16.657Z,99.90
2018-12-23T16:22:04.866Z,99.90
2018-12-23T16:24:52.749Z,99.90
2018-12-23T16:27:40.638Z,99.90
2018-12-23T16:30:28.520Z,99.90
2018-12-23T16:33:16.718Z,99.90
2018-12-23T16:36:04.882Z,99.90
2018-12-23T16:38:53.107Z,99.90
2018-12-23T16:44:34.946Z,99.90
2018-12-23T16:47:16.069Z,99.90
2018-12-23T16:49:57.307Z,99.90
2018-12-23T16:52:38.297Z,99.90
2018-12-23T16:55:18.930Z,99.90
2018-12-23T16:57:57.730Z,99.90
2018-12-23T17:00:45.595Z,99.90
2018-12-23T17:03:33.478Z,99.90
2018-12-23T17:06:21.677Z,99.90
2018-12-23T17:09:09.560Z,99.90
2018-12-23T17:15:06.839Z,99.90
2018-12-23T17:17:54.710Z,99.90
2018-12-23T17:20:42.590Z,99.90
2018-12-23T17:23:30.458Z,99.90
2018-12-23T17:29:11.890Z,99.90
2018-12-23T17:32:00.134Z,99.90
2018-12-23T17:34:48.000Z,99.90
2018-12-23T17:37:36.214Z,99.90
2018-12-23T17:40:24.357Z,99.90
2018-12-23T17:43:12.248Z,99.90
2018-12-23T17:46:00.125Z,99.90
2018-12-23T17:48:48.006Z,99.90
2018-12-23T17:51:35.892Z,99.90
2018-12-23T17:54:24.052Z,99.90
2018-12-23T17:57:12.259Z,99.90
2018-12-23T18:00:00.183Z,99.90
2018-12-23T18:02:49.726Z,99.90
2018-12-23T18:08:46.675Z,99.90
2018-12-23T18:11:34.956Z,99.90
2018-12-23T18:14:24.723Z,99.90
2018-12-23T18:17:12.667Z,99.90
2018-12-23T18:20:00.607Z,99.90
2018-12-23T18:22:48.837Z,99.90
2018-12-23T18:25:36.713Z,99.90
2018-12-23T18:28:24.578Z,99.90
2018-12-23T18:31:12.754Z,99.90
2018-12-23T18:34:01.086Z,99.90
2018-12-23T18:36:48.969Z,99.90
2018-12-23T18:39:37.033Z,99.90
2018-12-23T18:42:17.986Z,99.90
2018-12-23T18:44:59.064Z,99.90
2018-12-23T18:47:43.446Z,99.90
2018-12-23T18:50:24.498Z,99.90
2018-12-23T18:53:05.613Z,99.90
2018-12-23T18:55:46.682Z,99.90
2018-12-23T18:58:28.145Z,99.90
2018-12-23T19:01:09.603Z,99.90
2018-12-23T19:03:50.517Z,99.90
2018-12-23T19:06:31.993Z,99.90
2018-12-23T19:09:10.906Z,99.90
2018-12-23T19:12:18.127Z,99.90
2018-12-23T19:15:25.590Z,99.90
2018-12-23T19:18:34.474Z,99.90
2018-12-23T19:21:41.996Z,99.90
2018-12-23T19:24:49.209Z,99.90
2018-12-23T19:27:58.292Z,99.90
2018-12-23T19:31:05.565Z,99.90
2018-12-23T19:34:12.785Z,99.90
2018-12-23T19:37:21.821Z,99.90
2018-12-23T19:40:29.046Z,99.90
2018-12-23T19:43:10.710Z,99.90
2018-12-23T19:45:51.751Z,99.90
2018-12-23T19:48:32.657Z,99.90
2018-12-23T19:51:14.042Z,99.90
2018-12-23T19:53:54.969Z,99.90
2018-12-23T19:56:35.410Z,99.90
2018-12-23T19:59:16.936Z,99.90
2018-12-23T20:01:57.631Z,99.90
2018-12-23T20:04:39.059Z,99.90
2018-12-23T20:07:19.886Z,99.90
2018-12-23T20:10:03.470Z,99.90
2018-12-23T20:13:10.950Z,99.90
2018-12-23T20:16:18.153Z,99.90
2018-12-23T20:19:25.607Z,99.90
2018-12-23T20:22:34.208Z,99.90
2018-12-23T20:25:42.845Z,99.90
2018-12-23T20:28:51.470Z,99.90
2018-12-23T20:31:58.762Z,99.90
2018-12-23T20:35:07.381Z,99.90
2018-12-23T20:38:14.594Z,99.90
2018-12-23T20:41:22.050Z,99.90
2018-12-23T20:44:29.268Z,99.90
2018-12-23T20:47:10.989Z,99.90
2018-12-23T20:49:51.850Z,99.90
2018-12-23T20:52:33.053Z,99.90
2018-12-23T20:55:13.870Z,99.90
2018-12-23T20:57:55.017Z,99.90
2018-12-23T21:00:36.465Z,99.90
2018-12-23T21:03:18.035Z,99.90
2018-12-23T21:05:58.967Z,99.90
2018-12-23T21:08:39.278Z,99.90
2018-12-23T21:11:20.543Z,99.90
2018-12-23T21:14:02.031Z,99.90
2018-12-23T21:16:42.786Z,99.90
2018-12-23T21:19:23.951Z,99.90
2018-12-23T21:22:05.381Z,99.90
2018-12-23T21:24:46.239Z,99.90
2018-12-23T21:27:27.395Z,99.90
2018-12-23T21:30:08.514Z,99.90
2018-12-23T21:32:49.657Z,99.90
2018-12-23T21:35:30.778Z,99.90
2018-12-23T21:38:12.273Z,99.90
2018-12-23T21:40:53.034Z,99.90
2018-12-23T21:43:34.330Z,99.90
2018-12-23T21:46:15.078Z,99.90
2018-12-23T21:48:56.494Z,99.90
2018-12-23T21:51:37.394Z,99.90
2018-12-23T21:54:18.162Z,99.90
2018-12-23T21:56:59.211Z,99.90
2018-12-23T21:59:40.432Z,99.90
2018-12-23T22:02:21.510Z,99.90
2018-12-23T22:05:02.938Z,99.90
2018-12-23T22:07:43.766Z,99.90
2018-12-23T22:10:25.090Z,99.90
2018-12-23T22:13:06.174Z,99.90
2018-12-23T22:15:47.538Z,99.90
2018-12-23T22:18:28.187Z,99.90
2018-12-23T22:21:09.156Z,99.90
2018-12-23T22:23:50.197Z,99.90
2018-12-23T22:26:30.859Z,99.90
2018-12-23T22:29:12.178Z,99.90
2018-12-23T22:31:52.854Z,99.90
2018-12-23T22:34:34.223Z,99.90
2018-12-23T22:37:15.014Z,99.90
2018-12-23T22:39:56.155Z,99.90
2018-12-23T22:42:37.453Z,99.90
2018-12-23T22:45:18.707Z,99.90
2018-12-23T22:48:00.000Z,99.90
2018-12-23T22:50:40.769Z,99.90
2018-12-23T22:53:21.488Z,99.90
2018-12-23T22:56:00.611Z,99.90
2018-12-23T22:58:48.500Z,99.90
2018-12-23T23:01:39.070Z,99.90
2018-12-23T23:04:26.341Z,99.90
2018-12-23T23:07:14.318Z,99.90
2018-12-23T23:10:02.210Z,99.90
2018-12-23T23:12:50.451Z,99.90
2018-12-23T23:15:38.697Z,99.90
2018-12-23T23:18:26.942Z,99.90
2018-12-23T23:21:14.827Z,99.90
2018-12-23T23:24:02.966Z,99.90
2018-12-23T23:26:50.857Z,99.90
2018-12-23T23:29:38.743Z,99.90
2018-12-23T23:32:26.641Z,99.90
2018-12-23T23:35:14.873Z,99.90
2018-12-23T23:40:58.146Z,99.90
2018-12-23T23:43:46.365Z,99.90
2018-12-23T23:46:26.995Z,99.90
2018-12-23T23:49:07.502Z,99.90
2018-12-23T23:51:46.278Z,99.90
2018-12-23T23:54:34.306Z,99.90
2018-12-23T23:57:22.254Z,99.90
